Audubon, IA

6:16 PM CST on February 19, 2018 (GMT -0600)
Audubon County

Weather History for KADU - April, 2014

Change the Weather History Date:

Friday, April 4, 2014

  Actual Average Record
Temperature  
Mean Temperature 31 °F -  
Max Temperature 39 °F 55 °F 80 °F (2005)
Min Temperature 23 °F 30 °F 8 °F (2002)
Degree Days  
Heating Degree Days 34    
Moisture  
Dew Point 27 °F    
Average Humidity 77    
Maximum Humidity 87    
Minimum Humidity 65    
Precipitation  
Precipitation 0.03 in - - ()
Sea Level Pressure  
Sea Level Pressure 29.95 in    
Wind  
Wind Speed 14 mph (NW)    
Max Wind Speed 29 mph    
Max Gust Speed 60 mph    
Visibility 8 miles    
Events Snow    
Averages and records for this station are not official NWS values.
T = Trace of Precipitation, MM = Missing Value Source: NWS Daily Summary

Daily Weather History Graph

Daily Weather History Graph

Search for Another Location

Airport or City:

Trip Planner

Search our weather history database for the weather conditions in past years. The results will help you decide how hot, cold, wet, or windy it might be!

Date:

Astronomy

Apr. 04, 2014 Rise Set
Actual Time 6:57 AM CDT 7:48 PM CDT
Civil Twilight 6:29 AM CDT 8:16 PM CDT
Nautical Twilight 5:55 AM CDT 8:50 PM CDT
Astronomical Twilight 5:21 AM CDT 9:25 PM CDT
Moon 10:12 AM CDT (4/4) 12:10 AM CDT (4/4)
Length of Visible Light 13h 47m
Length of Day
12h 50m
Waxing Crescent, 25% of the Moon is Illuminated
Apr 4
Waxing Crescent
Apr 7
First Quarter
Apr 15
Full
Apr 22
Last Quarter
Apr 29
New

Hourly Weather History & Observations

Time (CDT) Temp. Windchill Dew Point Humidity Pressure Visibility Wind Dir Wind Speed Gust Speed Precip Events Conditions
12:15 AM 33.8 °F 23.9 °F 28.4 °F 81% 29.69 in 3.0 mi NNW 15.0 mph 19.6 mph N/A Snow Light Snow
12:35 AM 33.8 °F 24.8 °F 28.4 °F 81% 29.70 in 1.5 mi NW 12.7 mph 17.3 mph N/A Snow Light Snow
12:55 AM 32.0 °F 20.8 °F 28.4 °F 87% 29.71 in 1.0 mi NW 17.3 mph 23.0 mph N/A Snow Light Snow
1:15 AM 32.0 °F 23.0 °F 26.6 °F 80% 29.72 in 1.2 mi NW 11.5 mph 20.7 mph N/A Snow Light Snow
1:35 AM 30.2 °F 18.5 °F 26.6 °F 86% 29.73 in 3.0 mi NW 17.3 mph 25.3 mph N/A Snow Light Snow
1:55 AM 30.2 °F 18.1 °F 26.6 °F 86% 29.74 in 1.5 mi NW 18.4 mph 27.6 mph N/A Snow Light Snow
2:15 AM 30.2 °F 17.8 °F 26.6 °F 86% 29.74 in 4.0 mi NW 19.6 mph 28.8 mph N/A Snow Light Snow
2:35 AM 30.2 °F 20.2 °F 26.6 °F 86% 29.74 in 1.2 mi NW 12.7 mph 23.0 mph N/A Snow Light Snow
2:55 AM 30.2 °F 18.9 °F 26.6 °F 86% 29.74 in 2.0 mi NW 16.1 mph 26.5 mph N/A Snow Light Snow
3:15 AM 30.2 °F 20.2 °F 26.6 °F 86% 29.75 in 1.5 mi NW 12.7 mph 26.5 mph N/A Snow Light Snow
3:35 AM 30.2 °F 18.5 °F 26.6 °F 86% 29.74 in 2.5 mi NW 17.3 mph 26.5 mph N/A Snow Light Snow
3:55 AM 30.2 °F 15.4 °F 26.6 °F 86% 29.75 in 2.0 mi NW 28.8 mph 57.5 mph N/A Snow Light Snow
4:15 AM 30.2 °F - 24.8 °F 80% 29.75 in 4.0 mi Calm Calm - N/A Snow Light Snow
4:35 AM 30.2 °F 16.2 °F 24.8 °F 80% 29.75 in 4.0 mi NW 25.3 mph 59.8 mph N/A   Haze
4:55 AM 30.2 °F 17.1 °F 24.8 °F 80% 29.76 in 7.0 mi NW 21.9 mph 28.8 mph N/A   Clear
5:15 AM 30.2 °F 16.8 °F 24.8 °F 80% 29.78 in 5.0 mi NNW 23.0 mph 32.2 mph N/A   Haze
5:35 AM 30.2 °F 16.8 °F 26.6 °F 86% 29.80 in 5.0 mi NW 23.0 mph 32.2 mph N/A Snow Light Snow
5:55 AM 30.2 °F 17.8 °F 26.6 °F 86% 29.81 in 10.0 mi NW 19.6 mph 29.9 mph N/A   Clear
6:15 AM 32.0 °F 20.5 °F 26.6 °F 80% 29.82 in 10.0 mi NW 18.4 mph 28.8 mph N/A   Clear
6:35 AM 32.0 °F 22.1 °F 26.6 °F 80% 29.83 in 10.0 mi NW 13.8 mph 26.5 mph N/A   Clear
6:55 AM 32.0 °F 20.8 °F 26.6 °F 80% 29.85 in 10.0 mi NW 17.3 mph 23.0 mph N/A   Clear
7:15 AM 33.8 °F 25.3 °F 26.6 °F 75% 29.86 in 10.0 mi NW 11.5 mph 23.0 mph N/A   Clear
7:35 AM 33.8 °F 24.3 °F 26.6 °F 75% 29.87 in 10.0 mi NW 13.8 mph 20.7 mph N/A   Clear
7:55 AM 33.8 °F 23.9 °F 26.6 °F 75% 29.88 in 10.0 mi NW 15.0 mph 23.0 mph N/A   Clear
8:15 AM 33.8 °F 24.8 °F 28.4 °F 81% 29.89 in 10.0 mi NW 12.7 mph 18.4 mph N/A   Clear
8:35 AM 33.8 °F 24.3 °F 28.4 °F 81% 29.91 in 10.0 mi NW 13.8 mph 25.3 mph N/A   Clear
8:55 AM 33.8 °F 23.5 °F 28.4 °F 81% 29.91 in 10.0 mi NW 16.1 mph 25.3 mph N/A   Clear
9:15 AM 33.8 °F 21.9 °F 28.4 °F 81% 29.92 in 10.0 mi NW 21.9 mph 27.6 mph N/A   Clear
9:35 AM 33.8 °F 25.3 °F 28.4 °F 81% 29.93 in 10.0 mi NW 11.5 mph 21.9 mph 0.01 in   Clear
9:55 AM 33.8 °F 25.3 °F 28.4 °F 81% 29.94 in 10.0 mi NW 11.5 mph 20.7 mph 0.01 in   Clear
10:15 AM 33.8 °F 23.2 °F 28.4 °F 81% 29.95 in 10.0 mi NNW 17.3 mph 24.2 mph 0.02 in   Clear
10:35 AM 33.8 °F 23.2 °F 28.4 °F 81% 29.96 in 10.0 mi NW 17.3 mph 24.2 mph 0.02 in   Clear
10:55 AM 33.8 °F 23.2 °F 28.4 °F 81% 29.97 in 10.0 mi NW 17.3 mph 24.2 mph 0.02 in   Clear
11:15 AM 33.8 °F 22.5 °F 28.4 °F 81% 29.98 in 10.0 mi NW 19.6 mph 26.5 mph N/A   Clear
11:35 AM 35.6 °F 25.9 °F 28.4 °F 75% 29.98 in 10.0 mi NW 16.1 mph 25.3 mph N/A   Clear
11:55 AM 35.6 °F 25.5 °F 28.4 °F 75% 30.00 in 10.0 mi NW 17.3 mph 26.5 mph N/A   Clear
12:15 PM 35.6 °F 26.6 °F 28.4 °F 75% 30.01 in 10.0 mi NW 13.8 mph 21.9 mph N/A   Clear
12:35 PM 35.6 °F 26.6 °F 28.4 °F 75% 30.01 in 10.0 mi NW 13.8 mph 25.3 mph N/A   Clear
1:15 PM 37.4 °F 27.8 °F 30.2 °F 75% 30.01 in 10.0 mi NW 17.3 mph 24.2 mph N/A   Clear
1:35 PM 39.2 °F 30.8 °F 30.2 °F 70% 30.02 in 10.0 mi NW 15.0 mph 24.2 mph N/A   Clear
1:55 PM 39.2 °F 29.6 °F 30.2 °F 70% 30.02 in 10.0 mi NW 19.6 mph 28.8 mph N/A   Clear
2:15 PM 39.2 °F 30.2 °F 30.2 °F 70% 30.03 in 10.0 mi WNW 17.3 mph 26.5 mph N/A   Clear
2:30 PM 39.2 °F 29.6 °F 30.2 °F 70% 30.03 in 10.0 mi NW 19.6 mph 27.6 mph N/A   Clear
3:15 PM 39.2 °F 30.2 °F 30.2 °F 70% 30.04 in 10.0 mi NNW 17.3 mph 21.9 mph N/A   Clear
3:55 PM 39.2 °F 30.8 °F 28.4 °F 65% 30.05 in 10.0 mi WNW 15.0 mph 24.2 mph N/A   Clear
4:15 PM 39.2 °F 32.0 °F 28.4 °F 65% 30.05 in 10.0 mi NW 11.5 mph 16.1 mph N/A   Clear
4:35 PM 39.2 °F 31.2 °F 28.4 °F 65% 30.05 in 10.0 mi NW 13.8 mph 18.4 mph N/A   Clear
4:55 PM 39.2 °F 32.0 °F 28.4 °F 65% 30.06 in 10.0 mi NW 11.5 mph 17.3 mph N/A   Scattered Clouds
5:15 PM 37.4 °F 29.3 °F 28.4 °F 70% 30.06 in 10.0 mi NW 12.7 mph 20.7 mph N/A   Clear
5:35 PM 37.4 °F 29.8 °F 28.4 °F 70% 30.07 in 10.0 mi WNW 11.5 mph 17.3 mph N/A   Clear
5:55 PM 37.4 °F 29.3 °F 28.4 °F 70% 30.08 in 10.0 mi WNW 12.7 mph 18.4 mph N/A   Clear
6:15 PM 37.4 °F 29.8 °F 28.4 °F 70% 30.09 in 10.0 mi WNW 11.5 mph 16.1 mph N/A   Clear
6:35 PM 37.4 °F 30.3 °F 26.6 °F 65% 30.09 in 10.0 mi WNW 10.4 mph 16.1 mph N/A   Scattered Clouds
6:55 PM 37.4 °F 32.1 °F 26.6 °F 65% 30.10 in 10.0 mi WNW 6.9 mph - N/A   Scattered Clouds
7:15 PM 35.6 °F 29.2 °F 26.6 °F 70% 30.10 in 10.0 mi NW 8.1 mph - N/A   Scattered Clouds
7:35 PM 35.6 °F 29.9 °F 26.6 °F 70% 30.10 in 10.0 mi NW 6.9 mph - N/A   Mostly Cloudy
7:55 PM 35.6 °F 29.9 °F 26.6 °F 70% 30.11 in 10.0 mi WNW 6.9 mph - N/A   Mostly Cloudy
8:15 PM 35.6 °F 29.2 °F 26.6 °F 70% 30.11 in 10.0 mi WNW 8.1 mph - N/A   Overcast
8:35 PM 33.8 °F 30.8 °F 24.8 °F 70% 30.12 in 10.0 mi WNW 3.5 mph - N/A   Scattered Clouds
8:55 PM 32.0 °F - 24.8 °F 75% 30.12 in 10.0 mi Calm Calm - N/A   Clear
9:15 PM 30.2 °F - 23.0 °F 75% 30.13 in 10.0 mi Calm Calm - N/A   Clear
9:35 PM 30.2 °F - 23.0 °F 75% 30.13 in 10.0 mi Calm Calm - N/A   Clear
9:55 PM 28.4 °F - 21.2 °F 74% 30.14 in 10.0 mi Calm Calm - N/A   Clear
10:15 PM 26.6 °F - 21.2 °F 80% 30.13 in 10.0 mi Calm Calm - N/A   Clear
10:35 PM 26.6 °F - 19.4 °F 74% 30.14 in 10.0 mi Calm Calm - N/A   Clear
10:55 PM 26.6 °F - 21.2 °F 80% 30.14 in 10.0 mi Calm Calm - N/A   Clear
11:15 PM 23.0 °F - 17.6 °F 80% 30.14 in 10.0 mi Calm Calm - N/A   Clear
11:35 PM 24.8 °F - 19.4 °F 80% 30.14 in 10.0 mi Calm Calm - N/A   Clear
11:55 PM 23.0 °F - 17.6 °F 80% 30.14 in 10.0 mi Calm Calm - N/A   Clear